createdAt,value
2023-02-04T00:00:20.287Z,-0.57
2023-02-04T00:02:47.811Z,-0.74
2023-02-04T00:05:17.852Z,-0.66
2023-02-04T00:07:44.899Z,-0.44
2023-02-04T00:10:12.068Z,-0.53
2023-02-04T00:12:39.218Z,-0.33
2023-02-04T00:15:06.716Z,-0.12
2023-02-04T00:17:33.797Z,0.07
2023-02-04T00:20:00.834Z,-0.06
2023-02-04T00:22:29.163Z,-0.36
2023-02-04T00:24:56.598Z,-0.40
2023-02-04T00:27:23.689Z,-0.35
2023-02-04T00:29:50.758Z,-0.42
2023-02-04T00:32:17.953Z,-0.38
2023-02-04T00:34:45.068Z,-0.59
2023-02-04T00:37:12.053Z,-0.77
2023-02-04T00:39:39.038Z,-0.66
2023-02-04T00:42:06.640Z,-0.59
2023-02-04T00:44:33.926Z,-0.48
2023-02-04T00:47:00.922Z,-0.67
2023-02-04T00:49:27.956Z,-0.39
2023-02-04T00:51:55.089Z,-0.55
2023-02-04T00:54:22.201Z,-0.41
2023-02-04T00:56:49.219Z,-0.60
2023-02-04T00:59:16.353Z,-0.47
2023-02-04T01:01:43.967Z,-0.23
2023-02-04T01:04:11.327Z,-0.45
2023-02-04T01:06:38.432Z,-0.35
2023-02-04T01:09:06.250Z,-0.30
2023-02-04T01:11:33.783Z,-0.50
2023-02-04T01:14:01.134Z,-0.25
2023-02-04T01:16:28.299Z,-0.38
2023-02-04T01:18:56.067Z,-0.16
2023-02-04T01:21:24.326Z,-0.52
2023-02-04T01:23:51.782Z,-0.32
2023-02-04T01:26:19.878Z,-0.18
2023-02-04T01:28:47.123Z,-0.10
2023-02-04T01:31:15.025Z,0.06
2023-02-04T01:33:42.363Z,0.02
2023-02-04T01:36:10.385Z,0.19
2023-02-04T01:38:37.459Z,0.24
2023-02-04T01:41:05.781Z,0.34
2023-02-04T01:43:34.194Z,0.28
2023-02-04T01:46:02.793Z,0.28
2023-02-04T01:48:30.618Z,0.29
2023-02-04T01:51:08.872Z,0.33
2023-02-04T01:53:37.565Z,0.54
2023-02-04T01:56:28.580Z,0.50
2023-02-04T01:58:57.470Z,0.61
2023-02-04T02:01:47.284Z,0.50
2023-02-04T02:04:26.522Z,0.58
2023-02-04T02:06:58.927Z,0.28
2023-02-04T02:09:31.116Z,0.29
2023-02-04T02:11:58.556Z,0.46
2023-02-04T02:14:25.701Z,0.64
2023-02-04T02:16:52.964Z,0.58
2023-02-04T02:19:32.461Z,0.63
2023-02-04T02:22:13.608Z,0.64
2023-02-04T02:24:40.658Z,0.61
2023-02-04T02:27:11.486Z,0.68
2023-02-04T02:29:41.520Z,0.58
2023-02-04T02:32:10.896Z,0.66
2023-02-04T02:34:39.552Z,0.78
2023-02-04T02:37:11.216Z,0.67
2023-02-04T02:39:40.416Z,0.71
2023-02-04T02:42:07.766Z,0.73
2023-02-04T02:44:34.924Z,0.80
2023-02-04T02:47:01.988Z,0.75
2023-02-04T02:49:31.680Z,0.78
2023-02-04T02:51:59.162Z,0.96
2023-02-04T02:54:29.014Z,0.91
2023-02-04T02:56:56.868Z,1.03
2023-02-04T02:59:25.225Z,0.86
2023-02-04T03:01:58.645Z,1.00
2023-02-04T03:04:28.776Z,0.90
2023-02-04T03:06:56.424Z,0.88
2023-02-04T03:09:26.597Z,0.88
2023-02-04T03:11:54.386Z,0.97
2023-02-04T03:14:24.294Z,0.90
2023-02-04T03:16:54.446Z,0.91
2023-02-04T03:19:23.550Z,0.96
2023-02-04T03:21:50.806Z,1.00
2023-02-04T03:24:18.435Z,0.93
2023-02-04T03:26:45.615Z,0.96
2023-02-04T03:29:13.182Z,1.01
2023-02-04T03:31:40.442Z,0.98
2023-02-04T03:34:07.872Z,0.99
2023-02-04T03:36:35.031Z,0.98
2023-02-04T03:39:02.560Z,0.94
2023-02-04T03:41:30.540Z,0.95
2023-02-04T03:43:57.572Z,0.96
2023-02-04T03:46:25.964Z,1.00
2023-02-04T03:48:53.122Z,0.97
2023-02-04T03:51:20.427Z,1.02
2023-02-04T03:53:47.482Z,0.85
2023-02-04T03:56:14.614Z,0.92
2023-02-04T03:58:41.667Z,0.94
2023-02-04T04:01:08.687Z,1.00
2023-02-04T04:03:35.728Z,0.90
2023-02-04T04:06:05.346Z,0.88
2023-02-04T04:08:35.716Z,0.82
2023-02-04T04:11:02.852Z,0.83
2023-02-04T04:13:29.851Z,0.80
2023-02-04T04:15:56.964Z,0.70
2023-02-04T04:18:24.122Z,0.77
2023-02-04T04:20:51.155Z,0.68
2023-02-04T04:23:18.204Z,0.66
2023-02-04T04:25:45.208Z,0.69
2023-02-04T04:28:12.278Z,0.60
2023-02-04T04:30:39.493Z,0.58
2023-02-04T04:33:06.563Z,0.56
2023-02-04T04:35:34.833Z,0.63
2023-02-04T04:38:02.902Z,0.67
2023-02-04T04:40:30.213Z,0.65
2023-02-04T04:42:57.480Z,0.64
2023-02-04T04:45:24.562Z,0.61
2023-02-04T04:47:51.648Z,0.66
2023-02-04T04:50:18.754Z,0.57
2023-02-04T04:52:45.802Z,0.65
2023-02-04T04:55:12.841Z,0.73
2023-02-04T04:57:40.021Z,0.74
2023-02-04T05:00:08.989Z,0.77
2023-02-04T05:02:35.990Z,0.76
2023-02-04T05:05:04.362Z,0.67
2023-02-04T05:07:31.443Z,0.66
2023-02-04T05:09:58.430Z,0.70
2023-02-04T05:12:25.500Z,0.57
2023-02-04T05:14:52.566Z,0.67
2023-02-04T05:17:19.678Z,0.74
2023-02-04T05:19:46.684Z,0.77
2023-02-04T05:22:13.678Z,0.75
2023-02-04T05:24:40.727Z,0.72
2023-02-04T05:27:07.729Z,0.76
2023-02-04T05:29:34.753Z,0.85
2023-02-04T05:32:01.841Z,0.84
2023-02-04T05:34:28.904Z,0.78
2023-02-04T05:36:55.912Z,0.73
2023-02-04T05:39:22.980Z,0.91
2023-02-04T05:41:50.014Z,0.92
2023-02-04T05:44:17.037Z,0.95
2023-02-04T05:46:44.177Z,0.95
2023-02-04T05:49:11.410Z,0.96
2023-02-04T05:51:38.408Z,0.93
2023-02-04T05:54:05.437Z,0.97
2023-02-04T05:56:32.473Z,0.90
2023-02-04T05:58:59.496Z,0.90
2023-02-04T06:01:26.520Z,0.96
2023-02-04T06:03:53.630Z,0.99
2023-02-04T06:06:20.712Z,0.90
2023-02-04T06:08:47.697Z,0.85
2023-02-04T06:11:14.669Z,0.84
2023-02-04T06:13:41.731Z,0.92
2023-02-04T06:16:08.964Z,0.85
2023-02-04T06:18:35.991Z,0.85
2023-02-04T06:21:04.742Z,0.92
2023-02-04T06:23:34.341Z,0.85
2023-02-04T06:26:02.622Z,0.85
2023-02-04T06:28:30.478Z,0.90
2023-02-04T06:30:57.742Z,0.80
2023-02-04T06:33:24.837Z,0.76
2023-02-04T06:35:52.125Z,0.83
2023-02-04T06:38:19.679Z,0.74
2023-02-04T06:40:53.547Z,0.80
2023-02-04T06:43:21.840Z,0.84
2023-02-04T06:45:51.032Z,0.82
2023-02-04T06:48:18.830Z,0.82
2023-02-04T06:50:46.050Z,0.88
2023-02-04T06:53:13.143Z,0.81
2023-02-04T06:55:40.338Z,0.91
2023-02-04T06:58:07.408Z,0.96
2023-02-04T07:00:34.742Z,1.07
2023-02-04T07:03:02.035Z,1.03
2023-02-04T07:05:29.174Z,1.03
2023-02-04T07:07:56.543Z,1.07
2023-02-04T07:10:23.600Z,1.07
2023-02-04T07:12:50.617Z,1.06
2023-02-04T07:15:17.866Z,1.47
2023-02-04T07:17:44.910Z,2.79
2023-02-04T07:20:12.678Z,4.42
2023-02-04T07:22:39.849Z,6.11
2023-02-04T07:25:07.359Z,7.23
2023-02-04T07:27:34.402Z,7.83
2023-02-04T07:30:01.507Z,8.34
2023-02-04T07:32:32.782Z,9.00
2023-02-04T07:35:02.895Z,9.21
2023-02-04T07:37:29.986Z,9.91
2023-02-04T07:39:57.001Z,10.11
2023-02-04T07:42:24.076Z,10.55
2023-02-04T07:44:51.149Z,11.07
2023-02-04T07:47:18.139Z,11.15
2023-02-04T07:49:45.148Z,11.45
2023-02-04T07:52:12.412Z,11.89
2023-02-04T07:54:39.406Z,12.06
2023-02-04T07:57:06.437Z,12.27
2023-02-04T07:59:33.454Z,12.79
2023-02-04T08:02:01.975Z,12.92
2023-02-04T08:04:29.284Z,13.35
2023-02-04T08:06:57.177Z,13.71
2023-02-04T08:09:27.182Z,14.01
2023-02-04T08:11:54.302Z,14.23
2023-02-04T08:14:21.485Z,14.34
2023-02-04T08:16:48.606Z,14.54
2023-02-04T08:19:19.052Z,14.66
2023-02-04T08:21:47.345Z,14.70
2023-02-04T08:24:15.733Z,14.90
2023-02-04T08:26:44.031Z,15.22
2023-02-04T08:29:11.132Z,15.21
2023-02-04T08:31:39.212Z,15.38
2023-02-04T08:34:07.393Z,15.53
2023-02-04T08:36:34.808Z,15.93
2023-02-04T08:39:01.898Z,16.25
2023-02-04T08:41:28.893Z,16.76
2023-02-04T08:43:55.909Z,16.94
2023-02-04T08:46:22.973Z,17.00
2023-02-04T08:48:50.108Z,17.16
2023-02-04T08:51:17.214Z,17.39
2023-02-04T08:53:44.279Z,17.62
2023-02-04T08:56:15.852Z,17.73
2023-02-04T08:58:44.240Z,17.98
2023-02-04T09:01:11.498Z,17.95
2023-02-04T09:03:39.321Z,17.89
2023-02-04T09:06:07.618Z,18.04
2023-02-04T09:08:34.805Z,18.54
2023-02-04T09:11:02.013Z,18.60
2023-02-04T09:13:29.240Z,18.86
2023-02-04T09:15:56.377Z,18.71
2023-02-04T09:18:25.315Z,18.96
2023-02-04T09:20:53.206Z,19.07
2023-02-04T09:23:20.519Z,18.97
2023-02-04T09:25:48.301Z,19.13
2023-02-04T09:28:17.178Z,19.36
2023-02-04T09:30:46.921Z,19.35
2023-02-04T09:33:17.092Z,19.31
2023-02-04T09:35:44.484Z,19.75
2023-02-04T09:38:11.596Z,19.67
2023-02-04T09:40:46.927Z,19.69
2023-02-04T09:43:22.277Z,19.76
2023-02-04T09:45:49.721Z,19.82
2023-02-04T09:48:17.336Z,19.80
2023-02-04T09:50:45.018Z,19.88
2023-02-04T09:53:19.354Z,20.09
2023-02-04T09:55:48.202Z,20.09
2023-02-04T09:58:19.273Z,20.25
2023-02-04T10:01:01.527Z,20.15
2023-02-04T10:03:28.673Z,20.21
2023-02-04T10:05:55.709Z,20.53
2023-02-04T10:08:31.400Z,20.80
2023-02-04T10:10:58.448Z,20.79
2023-02-04T10:13:34.868Z,20.84
2023-02-04T10:16:11.870Z,20.87
2023-02-04T10:18:39.228Z,20.97
2023-02-04T10:21:29.274Z,21.18
2023-02-04T10:23:59.085Z,21.40
2023-02-04T10:26:29.904Z,21.07
2023-02-04T10:29:04.143Z,21.11
2023-02-04T10:31:39.814Z,20.58
2023-02-04T10:34:32.249Z,20.86
2023-02-04T10:36:59.335Z,20.02
2023-02-04T10:39:29.136Z,19.32
2023-02-04T10:41:59.063Z,18.55
2023-02-04T10:44:36.018Z,17.63
2023-02-04T10:47:19.029Z,16.55
2023-02-04T10:50:03.509Z,16.17
2023-02-04T10:52:43.970Z,15.46
2023-02-04T10:55:18.242Z,14.43
2023-02-04T10:57:48.606Z,14.23
2023-02-04T11:00:24.586Z,13.83
2023-02-04T11:03:15.306Z,13.53
2023-02-04T11:05:42.486Z,13.00
2023-02-04T11:08:24.980Z,12.81
2023-02-04T11:11:04.114Z,12.67
2023-02-04T11:13:57.582Z,12.57
2023-02-04T11:16:29.165Z,12.65
2023-02-04T11:19:11.511Z,12.44
2023-02-04T11:21:38.361Z,13.16
2023-02-04T11:24:14.128Z,12.68
2023-02-04T11:26:51.589Z,12.41
2023-02-04T11:29:38.902Z,12.00
2023-02-04T11:32:28.730Z,11.79
2023-02-04T11:35:12.115Z,11.03
2023-02-04T11:37:43.661Z,10.90
2023-02-04T11:40:37.658Z,10.78
2023-02-04T11:43:13.487Z,10.70
2023-02-04T11:45:41.227Z,10.44
2023-02-04T11:48:19.892Z,10.53
2023-02-04T11:51:02.766Z,9.99
2023-02-04T11:53:34.260Z,9.75
2023-02-04T11:56:01.513Z,9.93
2023-02-04T11:58:32.324Z,10.33
2023-02-04T12:00:59.780Z,10.52
2023-02-04T12:03:34.442Z,10.11
2023-02-04T12:06:01.611Z,9.91
2023-02-04T12:08:36.223Z,9.57
2023-02-04T12:11:27.470Z,9.61
2023-02-04T12:13:56.506Z,9.65
2023-02-04T12:16:24.732Z,9.56
2023-02-04T12:18:52.191Z,9.36
2023-02-04T12:21:19.778Z,9.18
2023-02-04T12:23:46.806Z,8.98
2023-02-04T12:26:14.085Z,9.09
2023-02-04T12:28:41.140Z,8.85
2023-02-04T12:31:08.219Z,8.79
2023-02-04T12:33:35.266Z,8.58
2023-02-04T12:36:02.437Z,8.41
2023-02-04T12:38:29.472Z,8.27
2023-02-04T12:40:56.440Z,8.20
2023-02-04T12:43:23.496Z,8.20
2023-02-04T12:45:50.466Z,8.14
2023-02-04T12:48:17.644Z,8.09
2023-02-04T12:50:44.668Z,8.03
2023-02-04T12:53:11.677Z,8.01
2023-02-04T12:55:38.779Z,7.94
2023-02-04T12:58:05.818Z,7.78
2023-02-04T13:00:32.900Z,7.72
2023-02-04T13:03:00.600Z,7.75
2023-02-04T13:05:28.495Z,7.46
2023-02-04T13:07:55.487Z,7.34
2023-02-04T13:10:24.004Z,7.22
2023-02-04T13:12:51.790Z,7.07
2023-02-04T13:15:19.035Z,6.84
2023-02-04T13:17:46.017Z,6.63
2023-02-04T13:20:13.244Z,6.59
2023-02-04T13:22:40.425Z,6.57
2023-02-04T13:25:07.761Z,6.38
2023-02-04T13:27:34.935Z,6.25
2023-02-04T13:30:02.784Z,6.31
2023-02-04T13:32:29.903Z,6.24
2023-02-04T13:34:56.946Z,6.15
2023-02-04T13:37:23.942Z,5.95
2023-02-04T13:39:50.909Z,5.82
2023-02-04T13:42:17.963Z,5.78
2023-02-04T13:44:44.955Z,5.77
2023-02-04T13:47:12.049Z,5.73
2023-02-04T13:49:39.073Z,5.62
2023-02-04T13:52:06.088Z,5.56
2023-02-04T13:54:33.159Z,5.54
2023-02-04T13:57:00.237Z,5.57
2023-02-04T13:59:27.270Z,5.53
2023-02-04T14:01:54.284Z,5.45
2023-02-04T14:04:21.269Z,5.51
2023-02-04T14:06:48.318Z,5.39
2023-02-04T14:09:15.306Z,5.41
2023-02-04T14:11:42.295Z,5.49
2023-02-04T14:14:09.440Z,5.47
2023-02-04T14:16:37.961Z,5.51
2023-02-04T14:19:06.607Z,5.47
2023-02-04T14:21:33.819Z,5.44
2023-02-04T14:24:01.617Z,5.19
2023-02-04T14:26:28.653Z,5.11
2023-02-04T14:28:55.709Z,5.09
2023-02-04T14:31:23.148Z,5.00
2023-02-04T14:33:50.491Z,5.00
2023-02-04T14:36:17.797Z,5.05
2023-02-04T14:38:44.916Z,4.81
2023-02-04T14:41:16.310Z,4.88
2023-02-04T14:43:43.393Z,4.64
2023-02-04T14:46:10.484Z,4.57
2023-02-04T14:48:37.510Z,4.45
2023-02-04T14:51:05.507Z,4.34
2023-02-04T14:53:32.502Z,4.31
2023-02-04T14:55:59.534Z,4.25
2023-02-04T14:58:27.986Z,4.15
2023-02-04T15:00:55.720Z,4.16
2023-02-04T15:03:23.255Z,4.06
2023-02-04T15:05:50.270Z,4.06
2023-02-04T15:08:17.452Z,3.90
2023-02-04T15:10:44.448Z,3.89
2023-02-04T15:13:11.999Z,3.79
2023-02-04T15:15:38.991Z,3.87
2023-02-04T15:18:06.381Z,3.75
2023-02-04T15:20:33.756Z,3.69
2023-02-04T15:23:01.083Z,3.64
2023-02-04T15:25:28.125Z,3.55
2023-02-04T15:27:55.703Z,3.44
2023-02-04T15:30:22.823Z,3.48
2023-02-04T15:32:49.832Z,3.45
2023-02-04T15:35:16.882Z,3.29
2023-02-04T15:37:43.869Z,3.27
2023-02-04T15:40:11.935Z,3.28
2023-02-04T15:42:38.917Z,3.11
2023-02-04T15:45:07.080Z,3.06
2023-02-04T15:47:34.292Z,2.90
2023-02-04T15:50:01.392Z,2.98
2023-02-04T15:52:29.366Z,2.91
2023-02-04T15:54:56.468Z,2.90
2023-02-04T15:57:23.463Z,2.88
2023-02-04T15:59:50.498Z,2.91
2023-02-04T16:02:17.640Z,2.79
2023-02-04T16:04:45.475Z,2.68
2023-02-04T16:07:12.820Z,2.60
2023-02-04T16:09:40.092Z,2.44
2023-02-04T16:12:07.356Z,2.39
2023-02-04T16:14:34.345Z,2.44
2023-02-04T16:17:01.901Z,2.41
2023-02-04T16:19:29.276Z,2.44
2023-02-04T16:21:56.427Z,2.32
2023-02-04T16:24:23.577Z,2.29
2023-02-04T16:26:50.666Z,2.25
2023-02-04T16:29:17.716Z,2.21
2023-02-04T16:31:44.842Z,2.18
2023-02-04T16:34:11.878Z,1.96
2023-02-04T16:36:38.909Z,1.98
2023-02-04T16:39:05.914Z,2.00
2023-02-04T16:41:33.007Z,1.89
2023-02-04T16:44:00.350Z,1.84
2023-02-04T16:46:28.766Z,1.75
2023-02-04T16:48:56.347Z,1.60
2023-02-04T16:51:24.888Z,1.67
2023-02-04T16:53:52.163Z,1.80
2023-02-04T16:56:19.657Z,1.76
2023-02-04T16:58:47.151Z,1.74
2023-02-04T17:01:17.125Z,1.64
2023-02-04T17:03:44.780Z,1.58
2023-02-04T17:06:16.305Z,1.54
2023-02-04T17:08:43.597Z,1.52
2023-02-04T17:11:29.033Z,1.53
2023-02-04T17:14:02.551Z,1.53
2023-02-04T17:16:30.582Z,1.51
2023-02-04T17:18:57.762Z,1.45
2023-02-04T17:21:27.308Z,1.47
2023-02-04T17:23:56.236Z,1.45
2023-02-04T17:26:24.383Z,1.44
2023-02-04T17:28:51.465Z,1.42
2023-02-04T17:31:18.551Z,1.42
2023-02-04T17:33:46.030Z,1.38
2023-02-04T17:36:15.277Z,1.32
2023-02-04T17:38:42.456Z,1.35
2023-02-04T17:41:09.534Z,1.49
2023-02-04T17:43:37.341Z,1.58
2023-02-04T17:46:04.641Z,1.47
2023-02-04T17:48:32.067Z,1.46
2023-02-04T17:50:59.160Z,1.43
2023-02-04T17:53:26.360Z,1.33
2023-02-04T17:55:53.388Z,1.33
2023-02-04T17:58:25.891Z,1.18
2023-02-04T18:00:55.515Z,1.28
2023-02-04T18:03:26.872Z,1.38
2023-02-04T18:05:56.858Z,1.29
2023-02-04T18:08:31.722Z,1.27
2023-02-04T18:10:58.844Z,1.23
2023-02-04T18:13:35.141Z,1.19
2023-02-04T18:16:19.459Z,1.14
2023-02-04T18:18:46.534Z,1.16
2023-02-04T18:21:33.204Z,1.13
2023-02-04T18:24:07.317Z,1.06
2023-02-04T18:26:35.069Z,0.93
2023-02-04T18:29:26.358Z,1.04
2023-02-04T18:32:19.317Z,1.14
2023-02-04T18:34:49.657Z,1.13
2023-02-04T18:37:34.024Z,1.05
2023-02-04T18:40:20.013Z,0.98
2023-02-04T18:42:47.651Z,0.92
2023-02-04T18:45:28.463Z,0.98
2023-02-04T18:48:01.716Z,1.04
2023-02-04T18:50:35.152Z,0.95
2023-02-04T18:53:24.359Z,0.98
2023-02-04T18:55:55.243Z,0.89
2023-02-04T18:58:36.441Z,0.83
2023-02-04T19:01:27.833Z,0.90
2023-02-04T19:04:03.520Z,0.88
2023-02-04T19:06:43.346Z,0.83
2023-02-04T19:09:10.352Z,0.92
2023-02-04T19:11:46.853Z,0.99
2023-02-04T19:14:39.060Z,0.95
2023-02-04T19:17:20.840Z,0.88
2023-02-04T19:20:17.742Z,0.75
2023-02-04T19:22:53.784Z,0.90
2023-02-04T19:25:36.282Z,0.88
2023-02-04T19:28:33.423Z,0.87
2023-02-04T19:31:08.240Z,0.89
2023-02-04T19:33:42.798Z,0.82
2023-02-04T19:36:47.998Z,0.86
2023-02-04T19:39:38.568Z,0.89
2023-02-04T19:42:30.331Z,0.84
2023-02-04T19:45:01.315Z,0.81
2023-02-04T19:47:43.141Z,0.82
2023-02-04T19:50:13.392Z,0.83
2023-02-04T19:53:06.798Z,0.85
2023-02-04T19:55:45.468Z,0.84
2023-02-04T19:58:18.267Z,0.82
2023-02-04T20:01:02.220Z,0.78
2023-02-04T20:03:43.076Z,0.73
2023-02-04T20:06:09.938Z,0.75
2023-02-04T20:08:58.847Z,0.84
2023-02-04T20:11:33.014Z,0.78
2023-02-04T20:14:15.039Z,0.87
2023-02-04T20:16:59.281Z,0.69
2023-02-04T20:19:34.868Z,0.73
2023-02-04T20:22:20.985Z,0.78
2023-02-04T20:24:55.697Z,0.76
2023-02-04T20:27:38.749Z,0.85
2023-02-04T20:30:09.298Z,0.82
2023-02-04T20:32:44.118Z,0.73
2023-02-04T20:35:13.823Z,0.78
2023-02-04T20:37:49.687Z,0.72
2023-02-04T20:40:27.146Z,0.84
2023-02-04T20:43:01.541Z,0.75
2023-02-04T20:45:55.620Z,0.74
2023-02-04T20:48:36.681Z,0.73
2023-02-04T20:51:05.004Z,0.81
2023-02-04T20:53:58.264Z,0.73
2023-02-04T20:56:37.698Z,0.74
2023-02-04T20:59:26.772Z,0.78
2023-02-04T21:01:53.931Z,0.60
2023-02-04T21:04:38.482Z,0.65
2023-02-04T21:07:19.391Z,0.64
2023-02-04T21:09:47.803Z,0.61
2023-02-04T21:12:15.425Z,0.65
2023-02-04T21:14:42.745Z,0.58
2023-02-04T21:17:09.765Z,0.56
2023-02-04T21:19:37.033Z,0.47
2023-02-04T21:22:04.116Z,0.52
2023-02-04T21:24:31.981Z,0.50
2023-02-04T21:26:59.127Z,0.47
2023-02-04T21:29:26.267Z,0.37
2023-02-04T21:31:54.779Z,0.59
2023-02-04T21:34:21.941Z,0.43
2023-02-04T21:36:48.950Z,0.34
2023-02-04T21:39:16.067Z,0.35
2023-02-04T21:41:43.719Z,0.29
2023-02-04T21:44:10.768Z,0.34
2023-02-04T21:46:37.908Z,0.23
2023-02-04T21:49:05.453Z,0.22
2023-02-04T21:51:32.551Z,0.13
2023-02-04T21:54:00.865Z,-0.05
2023-02-04T21:56:28.376Z,-0.10
2023-02-04T21:58:56.415Z,-0.10
2023-02-04T22:01:23.550Z,-0.08
2023-02-04T22:03:50.625Z,-0.18
2023-02-04T22:06:17.689Z,-0.17
2023-02-04T22:08:44.768Z,-0.10
2023-02-04T22:11:11.770Z,-0.14
2023-02-04T22:13:57.647Z,-0.22
2023-02-04T22:16:24.750Z,-0.36
2023-02-04T22:18:51.812Z,-0.29
2023-02-04T22:21:18.790Z,-0.44
2023-02-04T22:23:45.800Z,-0.52
2023-02-04T22:26:12.883Z,-0.56
2023-02-04T22:28:39.927Z,-0.58
2023-02-04T22:31:07.141Z,-0.50
2023-02-04T22:33:34.185Z,-0.45
2023-02-04T22:36:01.154Z,-0.49
2023-02-04T22:38:28.159Z,-0.69
2023-02-04T22:40:55.192Z,-0.69
2023-02-04T22:43:22.375Z,-0.75
2023-02-04T22:45:49.365Z,-0.76
2023-02-04T22:48:16.468Z,-0.72
2023-02-04T22:50:43.464Z,-0.77
2023-02-04T22:53:10.543Z,-0.83
2023-02-04T22:55:37.538Z,-0.82
2023-02-04T22:58:04.554Z,-0.79
2023-02-04T23:00:32.117Z,-0.88
2023-02-04T23:02:59.175Z,-0.91
2023-02-04T23:05:26.223Z,-0.89
2023-02-04T23:07:53.290Z,-0.95
2023-02-04T23:10:20.288Z,-0.91
2023-02-04T23:12:47.348Z,-0.97
2023-02-04T23:15:14.343Z,-0.92
2023-02-04T23:17:41.383Z,-0.98
2023-02-04T23:20:08.982Z,-1.09
2023-02-04T23:22:36.131Z,-1.06
2023-02-04T23:25:06.215Z,-1.16
2023-02-04T23:27:33.547Z,-1.26
2023-02-04T23:30:00.581Z,-1.24
2023-02-04T23:32:28.627Z,-1.23
2023-02-04T23:34:55.663Z,-1.37
2023-02-04T23:37:22.702Z,-1.39
2023-02-04T23:39:49.804Z,-1.42
2023-02-04T23:42:16.828Z,-1.48
2023-02-04T23:44:43.849Z,-1.49
2023-02-04T23:47:10.889Z,-1.44
2023-02-04T23:49:37.904Z,-1.47
2023-02-04T23:52:07.225Z,-1.52
2023-02-04T23:54:35.504Z,-1.45
2023-02-04T23:57:02.613Z,-1.47
2023-02-04T23:59:29.686Z,-1.37
